Katmai National Park, AK

5:15 PM AKDT on April 19, 2015 (GMT -0800)
King Salmon | | Change Station
CLOSE
Current Station
Airport
Location: King Salmon,
Elevation: 46 ft
Nearby Weather Stations

Elev 46 ft 58.68 °N, 156.66 °W | Updated 21 minutes ago

Overcast
Overcast
34 °F
Feels Like 22 °F
N
22
Wind Variable Wind from SW
Gusts 32 mph

Today
High -- | Low -- °F
--% Chance of Precip.
Yesterday
High -- | Low -- °F
Precip. -- in
7:02 AM 9:50 PM
New Moon, 2% visible
Pressure 29.39 in
Visibility 10.0 miles
Clouds Mostly Cloudy 1800 ft
Overcast 2300 ft
Windchill 22 °F
Dew Point 27 °F
Humidity 75%
Rainfall 0.06 in
Snow Depth Not available.
UV 1 out of 12
Pollen Not available.
Air Quality Not available.
Flu Activity Sporadic
METAR PAKN 200054Z 23019G28KT 10SM BKN018 OVC023 01/M03 A2939 RMK AO2 PK WND 21031/0004 SLP952 T00111028

More Conditions Fewer Conditions

Pressure 29.39 in
Visibility 10.0 miles
Clouds Mostly Cloudy 1800 ft
Overcast 2300 ft
Windchill 22 °F
Dew Point 27 °F
Humidity 75%
Rainfall 0.06 in
Snow Depth Not available.
UV 1 out of 12
Pollen Not available.
Air Quality Not available.
Flu Activity Sporadic
METAR PAKN 200054Z 23019G28KT 10SM BKN018 OVC023 01/M03 A2939 RMK AO2 PK WND 21031/0004 SLP952 T00111028

More Conditions Fewer Conditions

10-Day Weather Forecast

Almanac

Astronomy

Apr. 19, 2015 Rise Set
Actual Time
Civil Twilight
Nautical Twilight
Astronomical Twilight
Moon
Length of Visible Light
Length of Day
Tomorrow will be .
, % of the Moon is Illuminated

Today's Extremes

State Highs State Lows

Community

WunderPhotos

Upload Photos

1,815,080 photos uploaded!

WunderBlogs® & News

Nearby

Air Quality

  Air Quality AQ Index Pollutant
Not available.

Snow Depth

Station Depth Elevation

Earthquake Activity

City Distance Mag. Time & Date
Minimum magnitude displayed is 2.5.

Coastal Water Temperatures

Place Temperature

Stations

Nearby Weather Stations

Station Location Temp. Windchill Dew Point Humidity Wind Precip. Elev Updated Type